createdAt,value
2022-09-22T00:00:32.862Z,8.18
2022-09-22T00:03:05.191Z,8.20
2022-09-22T00:05:35.143Z,8.39
2022-09-22T00:08:05.363Z,8.29
2022-09-22T00:10:35.017Z,8.01
2022-09-22T00:13:04.715Z,7.94
2022-09-22T00:15:35.026Z,8.03
2022-09-22T00:18:07.301Z,8.10
2022-09-22T00:20:36.976Z,8.31
2022-09-22T00:23:06.624Z,8.11
2022-09-22T00:25:36.318Z,8.04
2022-09-22T00:28:06.017Z,8.11
2022-09-22T00:30:35.835Z,8.01
2022-09-22T00:33:08.070Z,8.08
2022-09-22T00:35:38.564Z,8.13
2022-09-22T00:38:08.803Z,7.99
2022-09-22T00:40:39.959Z,8.00
2022-09-22T00:43:19.270Z,8.04
2022-09-22T00:45:52.021Z,8.09
2022-09-22T00:48:29.797Z,7.99
2022-09-22T00:51:02.187Z,7.88
2022-09-22T00:53:32.417Z,7.87
2022-09-22T00:56:06.610Z,7.80
2022-09-22T00:58:41.012Z,7.83
2022-09-22T01:01:11.001Z,7.74
2022-09-22T01:03:44.031Z,7.67
2022-09-22T01:06:18.023Z,7.82
2022-09-22T01:08:48.887Z,7.73
2022-09-22T01:11:20.927Z,7.81
2022-09-22T01:13:58.072Z,7.96
2022-09-22T01:16:43.073Z,7.91
2022-09-22T01:19:37.046Z,7.71
2022-09-22T01:22:20.675Z,7.69
2022-09-22T01:25:10.007Z,7.63
2022-09-22T01:28:08.657Z,7.57
2022-09-22T01:30:47.502Z,7.80
2022-09-22T01:33:38.370Z,7.73
2022-09-22T01:36:27.679Z,7.67
2022-09-22T01:39:08.304Z,7.34
2022-09-22T01:41:53.010Z,7.55
2022-09-22T01:44:30.274Z,7.60
2022-09-22T01:47:08.212Z,7.53
2022-09-22T01:49:43.743Z,7.34
2022-09-22T01:52:20.932Z,7.60
2022-09-22T01:54:57.201Z,7.49
2022-09-22T01:57:33.735Z,7.50
2022-09-22T02:00:07.754Z,7.51
2022-09-22T02:02:45.315Z,7.45
2022-09-22T02:05:20.099Z,7.38
2022-09-22T02:07:54.260Z,7.24
2022-09-22T02:10:28.603Z,7.22
2022-09-22T02:12:58.275Z,7.13
2022-09-22T02:15:40.473Z,6.92
2022-09-22T02:18:17.673Z,6.59
2022-09-22T02:20:47.942Z,6.66
2022-09-22T02:23:17.707Z,6.68
2022-09-22T02:25:48.958Z,7.20
2022-09-22T02:28:21.644Z,7.31
2022-09-22T02:31:17.875Z,6.97
2022-09-22T02:33:47.658Z,6.73
2022-09-22T02:36:36.777Z,7.01
2022-09-22T02:39:11.961Z,6.75
2022-09-22T02:41:53.007Z,6.93
2022-09-22T02:44:26.836Z,6.80
2022-09-22T02:47:02.582Z,7.22
2022-09-22T02:49:36.217Z,6.96
2022-09-22T02:52:11.905Z,7.09
2022-09-22T02:54:41.844Z,7.11
2022-09-22T02:57:13.160Z,7.07
2022-09-22T02:59:42.846Z,7.06
2022-09-22T03:02:15.598Z,6.84
2022-09-22T03:04:47.914Z,6.96
2022-09-22T03:07:17.622Z,6.82
2022-09-22T03:09:47.382Z,7.11
2022-09-22T03:12:17.218Z,7.08
2022-09-22T03:14:46.967Z,6.96
2022-09-22T03:17:16.580Z,6.94
2022-09-22T03:19:48.989Z,6.88
2022-09-22T03:22:18.701Z,6.87
2022-09-22T03:24:48.560Z,6.93
2022-09-22T03:27:18.252Z,6.72
2022-09-22T03:29:47.877Z,6.82
2022-09-22T03:32:17.608Z,6.80
2022-09-22T03:34:49.812Z,6.65
2022-09-22T03:37:20.156Z,6.66
2022-09-22T03:39:49.785Z,6.63
2022-09-22T03:42:19.813Z,6.64
2022-09-22T03:44:49.509Z,6.73
2022-09-22T03:47:20.051Z,6.72
2022-09-22T03:49:52.377Z,6.69
2022-09-22T03:52:22.105Z,6.62
2022-09-22T03:54:52.333Z,6.51
2022-09-22T03:57:22.037Z,6.62
2022-09-22T03:59:52.549Z,6.57
2022-09-22T04:02:22.298Z,6.42
2022-09-22T04:04:54.644Z,6.39
2022-09-22T04:07:24.368Z,6.17
2022-09-22T04:09:54.914Z,6.37
2022-09-22T04:12:24.656Z,6.32
2022-09-22T04:14:54.339Z,6.43
2022-09-22T04:17:23.990Z,6.52
2022-09-22T04:19:56.817Z,6.44
2022-09-22T04:22:26.499Z,6.44
2022-09-22T04:24:56.233Z,6.43
2022-09-22T04:27:26.490Z,6.34
2022-09-22T04:29:56.183Z,6.35
2022-09-22T04:32:25.911Z,6.08
2022-09-22T04:34:58.162Z,6.14
2022-09-22T04:37:27.805Z,6.22
2022-09-22T04:39:57.503Z,6.24
2022-09-22T04:42:27.217Z,6.16
2022-09-22T04:45:02.137Z,6.08
2022-09-22T04:47:32.491Z,6.10
2022-09-22T04:50:04.886Z,6.14
2022-09-22T04:52:34.670Z,6.15
2022-09-22T04:55:04.425Z,6.24
2022-09-22T04:57:34.209Z,6.23
2022-09-22T05:00:04.318Z,6.14
2022-09-22T05:02:34.276Z,6.17
2022-09-22T05:05:08.461Z,6.16
2022-09-22T05:07:38.178Z,5.89
2022-09-22T05:10:09.133Z,6.19
2022-09-22T05:12:41.969Z,6.15
2022-09-22T05:15:14.183Z,5.90
2022-09-22T05:17:49.042Z,5.98
2022-09-22T05:20:22.647Z,6.11
2022-09-22T05:22:52.649Z,6.09
2022-09-22T05:25:23.198Z,5.99
2022-09-22T05:27:54.833Z,5.75
2022-09-22T05:30:26.877Z,6.03
2022-09-22T05:32:56.876Z,6.32
2022-09-22T05:35:34.328Z,6.26
2022-09-22T05:38:06.303Z,6.23
2022-09-22T05:40:36.253Z,6.40
2022-09-22T05:43:06.054Z,6.05
2022-09-22T05:45:35.864Z,5.97
2022-09-22T05:48:05.509Z,6.00
2022-09-22T05:50:38.132Z,6.00
2022-09-22T05:53:09.467Z,5.97
2022-09-22T05:55:40.833Z,6.27
2022-09-22T05:58:12.098Z,5.99
2022-09-22T06:00:42.235Z,6.03
2022-09-22T06:03:12.061Z,5.98
2022-09-22T06:05:44.423Z,5.93
2022-09-22T06:08:14.108Z,6.39
2022-09-22T06:10:45.344Z,5.98
2022-09-22T06:13:15.283Z,5.83
2022-09-22T06:15:49.066Z,5.87
2022-09-22T06:18:24.402Z,5.91
2022-09-22T06:20:57.423Z,6.31
2022-09-22T06:23:28.671Z,6.28
2022-09-22T06:26:01.568Z,6.37
2022-09-22T06:28:31.472Z,6.22
2022-09-22T06:31:01.432Z,6.09
2022-09-22T06:33:31.386Z,6.42
2022-09-22T06:36:04.307Z,6.44
2022-09-22T06:38:34.771Z,6.55
2022-09-22T06:41:07.009Z,6.57
2022-09-22T06:43:38.151Z,6.25
2022-09-22T06:46:13.798Z,6.40
2022-09-22T06:48:43.605Z,6.47
2022-09-22T06:51:17.853Z,7.07
2022-09-22T06:53:51.795Z,7.44
2022-09-22T06:56:23.735Z,8.92
2022-09-22T06:59:09.529Z,9.89
2022-09-22T07:01:46.294Z,11.16
2022-09-22T07:04:17.908Z,11.62
2022-09-22T07:06:50.505Z,11.96
2022-09-22T07:09:20.257Z,11.64
2022-09-22T07:11:50.384Z,11.45
2022-09-22T07:14:22.537Z,11.74
2022-09-22T07:16:52.645Z,11.61
2022-09-22T07:19:22.402Z,11.54
2022-09-22T07:21:54.690Z,11.78
2022-09-22T07:24:24.496Z,11.90
2022-09-22T07:26:54.122Z,11.93
2022-09-22T07:29:23.916Z,12.30
2022-09-22T07:31:53.911Z,11.96
2022-09-22T07:34:23.650Z,11.66
2022-09-22T07:36:55.993Z,12.06
2022-09-22T07:39:26.052Z,11.52
2022-09-22T07:41:55.690Z,11.70
2022-09-22T07:44:41.007Z,11.73
2022-09-22T07:47:14.013Z,11.85
2022-09-22T07:49:45.102Z,11.70
2022-09-22T07:52:17.513Z,11.31
2022-09-22T07:54:47.224Z,11.64
2022-09-22T07:57:17.007Z,11.90
2022-09-22T07:59:46.858Z,12.15
2022-09-22T08:02:16.847Z,12.22
2022-09-22T08:04:46.638Z,12.82
2022-09-22T08:07:18.968Z,12.90
2022-09-22T08:09:48.755Z,12.99
2022-09-22T08:12:18.469Z,13.29
2022-09-22T08:14:48.157Z,13.40
2022-09-22T08:17:17.981Z,13.42
2022-09-22T08:19:47.771Z,13.76
2022-09-22T08:22:20.642Z,14.03
2022-09-22T08:24:50.337Z,14.25
2022-09-22T08:27:20.232Z,14.33
2022-09-22T08:29:50.134Z,14.64
2022-09-22T08:32:20.035Z,14.70
2022-09-22T08:34:51.559Z,14.86
2022-09-22T08:37:24.367Z,14.72
2022-09-22T08:39:54.060Z,14.49
2022-09-22T08:42:25.651Z,14.71
2022-09-22T08:45:02.963Z,14.80
2022-09-22T08:47:51.168Z,14.94
2022-09-22T08:50:42.276Z,14.77
2022-09-22T08:53:19.313Z,14.86
2022-09-22T08:55:53.704Z,15.22
2022-09-22T08:58:37.376Z,15.27
2022-09-22T09:01:19.716Z,15.39
2022-09-22T09:03:58.507Z,15.32
2022-09-22T09:06:38.204Z,15.54
2022-09-22T09:09:28.305Z,15.61
2022-09-22T09:12:09.512Z,15.60
2022-09-22T09:14:55.606Z,15.82
2022-09-22T09:17:29.077Z,15.71
2022-09-22T09:20:04.770Z,15.90
2022-09-22T09:22:43.699Z,15.66
2022-09-22T09:25:25.205Z,15.49
2022-09-22T09:28:00.895Z,15.63
2022-09-22T09:30:39.648Z,15.81
2022-09-22T09:33:19.956Z,15.86
2022-09-22T09:35:53.163Z,16.32
2022-09-22T09:38:30.376Z,16.51
2022-09-22T09:41:15.600Z,16.33
2022-09-22T09:43:45.864Z,16.47
2022-09-22T09:46:24.912Z,16.59
2022-09-22T09:49:09.081Z,16.63
2022-09-22T09:51:42.448Z,16.65
2022-09-22T09:54:17.487Z,16.85
2022-09-22T09:57:09.236Z,16.77
2022-09-22T09:59:52.614Z,16.86
2022-09-22T10:02:25.505Z,16.86
2022-09-22T10:04:58.738Z,17.00
2022-09-22T10:10:36.462Z,16.99
2022-09-22T10:13:41.759Z,17.41
2022-09-22T10:16:36.272Z,17.53
2022-09-22T10:19:22.149Z,17.67
2022-09-22T10:21:52.422Z,17.66
2022-09-22T10:24:34.716Z,18.00
2022-09-22T10:27:07.510Z,17.92
2022-09-22T10:29:42.275Z,17.98
2022-09-22T10:32:19.435Z,18.21
2022-09-22T10:34:51.214Z,18.57
2022-09-22T10:37:27.373Z,18.92
2022-09-22T10:40:02.810Z,19.43
2022-09-22T10:42:37.443Z,19.46
2022-09-22T10:45:10.379Z,19.67
2022-09-22T10:48:00.460Z,19.78
2022-09-22T10:50:54.963Z,19.69
2022-09-22T10:53:37.845Z,19.97
2022-09-22T10:56:17.115Z,20.42
2022-09-22T10:59:05.511Z,20.62
2022-09-22T11:01:52.496Z,20.79
2022-09-22T11:04:37.329Z,20.39
2022-09-22T11:07:33.629Z,20.03
2022-09-22T11:10:37.366Z,20.55
2022-09-22T11:13:18.565Z,20.35
2022-09-22T11:16:05.000Z,20.54
2022-09-22T11:18:49.384Z,20.43
2022-09-22T11:21:32.906Z,20.03
2022-09-22T11:24:17.581Z,20.69
2022-09-22T11:26:52.031Z,20.78
2022-09-22T11:29:53.734Z,20.69
2022-09-22T11:32:47.394Z,20.86
2022-09-22T11:35:47.243Z,21.25
2022-09-22T11:38:45.299Z,20.61
2022-09-22T11:41:29.813Z,20.24
2022-09-22T11:44:16.407Z,20.59
2022-09-22T11:47:01.534Z,20.82
2022-09-22T11:49:42.675Z,20.75
2022-09-22T11:52:24.412Z,19.94
2022-09-22T11:55:08.339Z,20.25
2022-09-22T11:57:42.957Z,20.06
2022-09-22T12:00:17.658Z,20.24
2022-09-22T12:02:52.211Z,20.15
2022-09-22T12:05:27.448Z,20.04
2022-09-22T12:08:03.507Z,20.34
2022-09-22T12:10:40.044Z,20.26
2022-09-22T12:13:15.465Z,20.07
2022-09-22T12:15:53.359Z,20.04
2022-09-22T12:18:32.445Z,20.02
2022-09-22T12:21:07.643Z,19.93
2022-09-22T12:23:45.155Z,19.89
2022-09-22T12:26:30.274Z,19.84
2022-09-22T12:29:01.387Z,19.73
2022-09-22T12:31:40.179Z,19.86
2022-09-22T12:34:20.775Z,20.15
2022-09-22T12:36:54.950Z,19.93
2022-09-22T12:39:27.491Z,20.22
2022-09-22T12:42:04.075Z,20.13
2022-09-22T12:44:37.863Z,19.81
2022-09-22T12:47:11.125Z,19.67
2022-09-22T12:49:50.939Z,19.27
2022-09-22T12:52:40.055Z,19.45
2022-09-22T12:55:22.186Z,19.20
2022-09-22T12:57:55.019Z,19.44
2022-09-22T13:00:36.252Z,19.35
2022-09-22T13:03:52.214Z,18.87
2022-09-22T13:06:55.776Z,19.21
2022-09-22T13:09:30.179Z,19.06
2022-09-22T13:12:38.400Z,18.97
2022-09-22T13:15:32.116Z,18.99
2022-09-22T13:18:01.886Z,19.14
2022-09-22T13:20:35.223Z,19.14
2022-09-22T13:23:08.368Z,18.70
2022-09-22T13:25:38.194Z,18.85
2022-09-22T13:28:17.619Z,19.08
2022-09-22T13:31:03.383Z,19.05
2022-09-22T13:33:38.102Z,19.01
2022-09-22T13:36:11.164Z,18.89
2022-09-22T13:38:43.931Z,18.90
2022-09-22T13:41:15.098Z,19.02
2022-09-22T13:43:48.368Z,18.91
2022-09-22T13:46:27.518Z,18.71
2022-09-22T13:49:00.105Z,18.49
2022-09-22T13:51:29.992Z,18.73
2022-09-22T13:54:00.436Z,18.81
2022-09-22T13:56:30.729Z,18.71
2022-09-22T13:59:03.040Z,18.77
2022-09-22T14:01:36.017Z,18.64
2022-09-22T14:04:06.057Z,18.71
2022-09-22T14:06:37.161Z,18.53
2022-09-22T14:09:07.445Z,18.55
2022-09-22T14:11:39.973Z,18.60
2022-09-22T14:14:23.760Z,18.54
2022-09-22T14:17:00.296Z,18.52
2022-09-22T14:19:34.157Z,18.60
2022-09-22T14:22:07.044Z,18.35
2022-09-22T14:24:38.310Z,17.94
2022-09-22T14:27:10.629Z,18.25
2022-09-22T14:29:42.374Z,18.21
2022-09-22T14:32:22.785Z,18.17
2022-09-22T14:34:56.521Z,18.19
2022-09-22T14:37:32.425Z,18.18
2022-09-22T14:40:05.581Z,18.24
2022-09-22T14:42:36.212Z,18.24
2022-09-22T14:45:21.935Z,18.17
2022-09-22T14:48:18.098Z,18.07
2022-09-22T14:50:49.466Z,18.16
2022-09-22T14:53:23.239Z,18.20
2022-09-22T14:55:55.001Z,18.10
2022-09-22T14:58:27.228Z,18.08
2022-09-22T15:01:11.601Z,18.03
2022-09-22T15:03:46.609Z,18.08
2022-09-22T15:06:17.695Z,18.08
2022-09-22T15:08:53.082Z,17.91
2022-09-22T15:11:22.992Z,18.04
2022-09-22T15:13:53.651Z,18.00
2022-09-22T15:16:39.424Z,17.87
2022-09-22T15:19:14.128Z,17.73
2022-09-22T15:21:49.108Z,17.51
2022-09-22T15:24:26.328Z,17.54
2022-09-22T15:27:00.273Z,17.64
2022-09-22T15:29:32.502Z,17.50
2022-09-22T15:32:04.420Z,17.59
2022-09-22T15:34:38.344Z,17.59
2022-09-22T15:37:08.243Z,17.47
2022-09-22T15:39:37.984Z,17.63
2022-09-22T15:42:10.333Z,17.39
2022-09-22T15:44:40.616Z,17.33
2022-09-22T15:47:16.774Z,17.47
2022-09-22T15:49:51.313Z,17.25
2022-09-22T15:52:21.376Z,17.23
2022-09-22T15:54:51.249Z,17.22
2022-09-22T15:57:20.962Z,17.21
2022-09-22T15:59:52.427Z,17.24
2022-09-22T16:02:22.348Z,17.19
2022-09-22T16:04:55.766Z,17.15
2022-09-22T16:07:25.550Z,17.04
2022-09-22T16:09:55.378Z,17.09
2022-09-22T16:12:25.651Z,16.87
2022-09-22T16:14:55.329Z,16.76
2022-09-22T16:17:25.309Z,16.62
2022-09-22T16:19:58.839Z,16.65
2022-09-22T16:22:28.973Z,16.53
2022-09-22T16:24:58.630Z,16.49
2022-09-22T16:27:30.055Z,16.52
2022-09-22T16:29:59.968Z,16.46
2022-09-22T16:32:30.858Z,16.35
2022-09-22T16:35:03.153Z,16.37
2022-09-22T16:37:32.913Z,16.22
2022-09-22T16:40:02.939Z,16.14
2022-09-22T16:42:32.669Z,16.19
2022-09-22T16:45:04.029Z,16.16
2022-09-22T16:47:33.667Z,16.10
2022-09-22T16:50:07.576Z,16.03
2022-09-22T16:52:37.641Z,15.98
2022-09-22T16:55:08.218Z,15.95
2022-09-22T16:57:37.847Z,15.77
2022-09-22T17:00:09.797Z,15.72
2022-09-22T17:02:39.745Z,15.67
2022-09-22T17:05:13.049Z,15.65
2022-09-22T17:07:46.346Z,15.46
2022-09-22T17:10:16.402Z,15.25
2022-09-22T17:12:46.074Z,15.06
2022-09-22T17:15:16.701Z,14.87
2022-09-22T17:17:46.499Z,14.82
2022-09-22T17:20:18.871Z,14.59
2022-09-22T17:22:48.818Z,14.41
2022-09-22T17:25:19.014Z,14.45
2022-09-22T17:27:49.136Z,14.25
2022-09-22T17:30:19.124Z,14.11
2022-09-22T17:32:49.067Z,14.10
2022-09-22T17:35:21.385Z,13.96
2022-09-22T17:37:53.564Z,13.95
2022-09-22T17:40:23.352Z,13.97
2022-09-22T17:42:53.016Z,13.98
2022-09-22T17:45:23.029Z,13.73
2022-09-22T17:48:05.133Z,13.76
2022-09-22T17:50:49.921Z,13.64
2022-09-22T17:53:32.058Z,13.56
2022-09-22T17:56:05.263Z,13.53
2022-09-22T17:58:35.237Z,13.49
2022-09-22T18:01:05.192Z,13.44
2022-09-22T18:03:35.653Z,13.42
2022-09-22T18:06:15.020Z,13.31
2022-09-22T18:08:45.453Z,13.25
2022-09-22T18:11:15.623Z,13.12
2022-09-22T18:13:45.260Z,13.12
2022-09-22T18:16:22.999Z,13.11
2022-09-22T18:18:52.723Z,13.00
2022-09-22T18:21:25.171Z,12.93
2022-09-22T18:23:54.828Z,13.08
2022-09-22T18:26:27.748Z,13.11
2022-09-22T18:28:58.044Z,13.13
2022-09-22T18:31:28.471Z,13.30
2022-09-22T18:33:58.417Z,13.36
2022-09-22T18:36:30.879Z,13.09
2022-09-22T18:39:00.786Z,13.23
2022-09-22T18:41:32.133Z,13.12
2022-09-22T18:44:04.762Z,13.14
2022-09-22T18:46:36.524Z,13.05
2022-09-22T18:49:09.539Z,13.04
2022-09-22T18:51:45.233Z,13.24
2022-09-22T18:54:15.570Z,13.24
2022-09-22T18:56:47.916Z,13.28
2022-09-22T18:59:19.815Z,13.18
2022-09-22T19:01:50.350Z,12.99
2022-09-22T19:04:22.667Z,13.18
2022-09-22T19:07:09.217Z,12.95
2022-09-22T19:09:39.338Z,12.96
2022-09-22T19:12:10.794Z,13.05
2022-09-22T19:14:42.285Z,12.87
2022-09-22T19:17:13.507Z,12.73
2022-09-22T19:19:46.040Z,12.92
2022-09-22T19:22:19.354Z,12.64
2022-09-22T19:24:49.128Z,12.43
2022-09-22T19:27:22.907Z,12.52
2022-09-22T19:29:52.782Z,12.58
2022-09-22T19:32:22.432Z,12.56
2022-09-22T19:34:54.939Z,12.51
2022-09-22T19:37:29.366Z,12.40
2022-09-22T19:39:59.290Z,12.38
2022-09-22T19:42:28.971Z,12.40
2022-09-22T19:44:59.385Z,12.41
2022-09-22T19:47:29.219Z,12.36
2022-09-22T19:49:59.423Z,12.37
2022-09-22T19:52:31.774Z,12.36
2022-09-22T19:55:01.566Z,12.40
2022-09-22T19:57:31.955Z,12.23
2022-09-22T20:00:01.894Z,12.08
2022-09-22T20:02:31.704Z,12.03
2022-09-22T20:05:01.313Z,12.25
2022-09-22T20:07:33.728Z,12.13
2022-09-22T20:10:03.350Z,12.25
2022-09-22T20:12:33.094Z,12.11
2022-09-22T20:15:02.837Z,12.15
2022-09-22T20:17:32.544Z,11.72
2022-09-22T20:20:02.277Z,11.80
2022-09-22T20:22:38.378Z,11.81
2022-09-22T20:25:09.054Z,11.89
2022-09-22T20:27:40.213Z,12.04
2022-09-22T20:30:11.346Z,11.89
2022-09-22T20:32:41.154Z,11.99
2022-09-22T20:35:13.541Z,11.94
2022-09-22T20:37:46.741Z,12.01
2022-09-22T20:40:18.721Z,12.01
2022-09-22T20:42:49.135Z,11.90
2022-09-22T20:45:21.009Z,11.82
2022-09-22T20:47:51.048Z,11.74
2022-09-22T20:50:21.326Z,11.60
2022-09-22T20:52:53.816Z,11.61
2022-09-22T20:55:23.491Z,11.55
2022-09-22T20:57:53.220Z,11.43
2022-09-22T21:00:23.042Z,11.43
2022-09-22T21:02:53.709Z,11.61
2022-09-22T21:05:23.466Z,11.73
2022-09-22T21:08:15.870Z,11.32
2022-09-22T21:10:42.955Z,11.13
2022-09-22T21:13:12.620Z,10.95
2022-09-22T21:15:42.397Z,11.03
2022-09-22T21:18:12.084Z,11.33
2022-09-22T21:20:43.163Z,11.25
2022-09-22T21:23:15.424Z,11.22
2022-09-22T21:25:45.169Z,10.96
2022-09-22T21:28:14.843Z,11.19
2022-09-22T21:30:44.585Z,10.96
2022-09-22T21:33:14.333Z,11.20
2022-09-22T21:35:43.984Z,11.15
2022-09-22T21:38:16.281Z,10.98
2022-09-22T21:40:45.931Z,10.91
2022-09-22T21:43:15.668Z,10.67
2022-09-22T21:45:45.456Z,10.77
2022-09-22T21:48:15.166Z,10.75
2022-09-22T21:50:44.845Z,10.80
2022-09-22T21:53:17.090Z,10.70
2022-09-22T21:55:46.783Z,10.94
2022-09-22T21:58:16.545Z,10.79
2022-09-22T22:00:52.128Z,10.67
2022-09-22T22:03:34.379Z,10.80
2022-09-22T22:06:06.052Z,10.85
2022-09-22T22:08:42.643Z,10.63
2022-09-22T22:11:14.464Z,10.75
2022-09-22T22:13:45.395Z,10.73
2022-09-22T22:16:15.558Z,10.76
2022-09-22T22:18:45.563Z,10.73
2022-09-22T22:21:17.345Z,10.64
2022-09-22T22:23:51.543Z,10.35
2022-09-22T22:26:23.697Z,10.50
2022-09-22T22:28:54.805Z,10.58
2022-09-22T22:31:26.340Z,10.48
2022-09-22T22:33:56.883Z,10.48
2022-09-22T22:36:26.615Z,10.30
2022-09-22T22:38:58.995Z,10.14
2022-09-22T22:41:30.577Z,10.25
2022-09-22T22:44:01.991Z,10.00
2022-09-22T22:46:32.422Z,10.08
2022-09-22T22:49:02.441Z,9.90
2022-09-22T22:51:32.276Z,10.03
2022-09-22T22:54:05.012Z,10.10
2022-09-22T22:56:35.113Z,10.16
2022-09-22T22:59:04.913Z,10.41
2022-09-22T23:01:35.405Z,10.18
2022-09-22T23:04:06.927Z,9.95
2022-09-22T23:06:39.110Z,10.06
2022-09-22T23:09:15.107Z,9.93
2022-09-22T23:11:46.615Z,10.18
2022-09-22T23:14:17.172Z,9.72
2022-09-22T23:16:49.644Z,9.84
2022-09-22T23:19:20.886Z,9.85
2022-09-22T23:21:51.616Z,9.99
2022-09-22T23:24:23.995Z,9.72
2022-09-22T23:26:54.530Z,9.88
2022-09-22T23:29:24.207Z,9.70
2022-09-22T23:31:53.862Z,9.79
2022-09-22T23:34:24.719Z,9.59
2022-09-22T23:36:54.383Z,9.67
2022-09-22T23:39:26.977Z,9.59
2022-09-22T23:41:56.690Z,9.90
2022-09-22T23:44:26.429Z,9.82
2022-09-22T23:46:56.405Z,9.85
2022-09-22T23:49:26.051Z,9.74
2022-09-22T23:51:55.757Z,9.58
2022-09-22T23:54:28.238Z,9.50
2022-09-22T23:56:57.956Z,9.71
2022-09-22T23:59:27.633Z,9.81
